Time;durP1;ratioP1;P1;durP2;ratioP2;P2;SDS_P1;SDS_P2;PMS_P1;PMS_P2;Temp;Humidity;BMP_temperature;BMP_pressure;BME280_temperature;BME280_humidity;BME280_pressure;Samples;Min_cycle;Max_cycle;Signal;HPM_P1;HPM_P2
2022/04/09 00:02:00;;;;;;;12.68;4.22;;;;;;;5.91;79.41;100291.69;5033366;28;20095;-44
2022/04/09 00:04:28;;;;;;;14.65;4.60;;;;;;;5.91;79.59;100301.69;5034863;28;20037;-45
2022/04/09 00:06:55;;;;;;;17.30;4.68;;;;;;;5.90;79.92;100311.69;5052676;28;20037;-44
2022/04/09 00:09:23;;;;;;;13.15;4.20;;;;;;;5.90;79.51;100316.28;5053460;28;20043;-44
2022/04/09 00:11:50;;;;;;;18.65;4.70;;;;;;;5.87;79.81;100323.03;5053313;28;20055;-44
2022/04/09 00:14:18;;;;;;;21.67;6.13;;;;;;;5.85;80.02;100329.75;5048900;28;20041;-43
2022/04/09 00:16:46;;;;;;;16.00;4.45;;;;;;;5.83;79.95;100330.00;5034300;28;20055;-44
2022/04/09 00:19:14;;;;;;;17.88;4.55;;;;;;;5.78;80.17;100324.50;5032752;28;20041;-44
2022/04/09 00:21:41;;;;;;;14.75;4.30;;;;;;;5.78;80.64;100338.03;5032227;28;20048;-45
2022/04/09 00:24:09;;;;;;;14.52;3.67;;;;;;;5.78;80.58;100335.31;5039744;28;20479;-46
2022/04/09 00:26:36;;;;;;;13.80;3.88;;;;;;;5.75;80.00;100341.25;5040260;28;20067;-45
2022/04/09 00:29:04;;;;;;;17.42;4.25;;;;;;;5.74;80.77;100350.41;5033096;28;20045;-45
2022/04/09 00:31:32;;;;;;;12.35;3.90;;;;;;;5.75;80.75;100347.44;5033039;28;20047;-43
2022/04/09 00:34:00;;;;;;;14.70;4.30;;;;;;;5.77;80.93;100352.59;5033335;28;20107;-47
2022/04/09 00:36:28;;;;;;;15.27;3.75;;;;;;;5.79;80.69;100347.75;5034078;28;20073;-49
2022/04/09 00:38:56;;;;;;;14.32;4.43;;;;;;;5.81;81.04;100361.84;5031841;28;20518;-48
2022/04/09 00:41:23;;;;;;;13.65;4.05;;;;;;;5.81;80.64;100367.25;5032982;28;20518;-47
2022/04/09 00:43:51;;;;;;;13.20;4.15;;;;;;;5.80;80.59;100365.63;5034284;28;20142;-47
2022/04/09 00:46:19;;;;;;;16.08;3.78;;;;;;;5.79;80.83;100369.38;5051340;28;20131;-49
2022/04/09 00:48:48;;;;;;;13.93;4.60;;;;;;;5.75;80.66;100371.78;5051656;28;20041;-44
2022/04/09 00:51:16;;;;;;;14.60;4.55;;;;;;;5.74;80.90;100377.44;5035326;28;20045;-48
2022/04/09 00:53:45;;;;;;;14.50;4.43;;;;;;;5.72;80.88;100384.97;5052452;28;20060;-45
2022/04/09 00:56:15;;;;;;;13.90;4.10;;;;;;;5.71;81.04;100391.44;5020954;28;20049;-44
2022/04/09 00:58:55;;;;;;;15.80;4.10;;;;;;;5.70;81.01;100397.91;5015556;28;20046;-48
2022/04/09 01:01:29;;;;;;;14.75;3.95;;;;;;;5.68;80.88;100394.66;5015858;28;20048;-53
2022/04/09 01:03:57;;;;;;;18.27;4.10;;;;;;;5.66;80.92;100403.00;5032032;28;20553;-45
2022/04/09 01:06:25;;;;;;;14.93;4.00;;;;;;;5.65;80.88;100405.94;5015294;28;20168;-44
2022/04/09 01:08:53;;;;;;;15.75;4.15;;;;;;;5.63;80.60;100403.50;5033942;28;20378;-44
2022/04/09 01:11:21;;;;;;;15.80;4.18;;;;;;;5.62;80.29;100406.41;5033080;28;20044;-44
2022/04/09 01:13:49;;;;;;;15.35;4.47;;;;;;;5.60;80.13;100403.97;5036058;28;20041;-42
2022/04/09 01:16:17;;;;;;;18.90;3.90;;;;;;;5.59;79.86;100409.63;5033923;28;20080;-46
2022/04/09 01:18:46;;;;;;;14.18;3.80;;;;;;;5.60;79.52;100414.75;5031384;28;20512;-43
2022/04/09 01:21:14;;;;;;;11.00;3.45;;;;;;;5.59;79.21;100423.13;5015136;28;20092;-43
2022/04/09 01:23:42;;;;;;;10.38;3.25;;;;;;;5.59;78.81;100428.53;5033251;28;20049;-43
2022/04/09 01:26:10;;;;;;;13.73;3.88;;;;;;;5.58;78.71;100432.28;5031686;28;20134;-45
2022/04/09 01:28:42;;;;;;;14.50;3.35;;;;;;;5.57;78.73;100431.47;5020732;28;20041;-45
2022/04/09 01:31:11;;;;;;;13.60;3.50;;;;;;;5.57;78.80;100436.06;5033763;28;20038;-46
2022/04/09 01:33:39;;;;;;;17.95;4.20;;;;;;;5.58;78.74;100443.94;5037069;28;20053;-50
2022/04/09 01:36:06;;;;;;;11.20;3.60;;;;;;;5.60;78.75;100451.78;5036116;28;20503;-46
2022/04/09 01:38:34;;;;;;;14.57;3.60;;;;;;;5.62;78.58;100446.97;5022251;28;20052;-46
2022/04/09 01:41:04;;;;;;;11.95;3.55;;;;;;;5.63;78.63;100454.00;5038986;28;20452;-45
2022/04/09 01:43:38;;;;;;;14.50;3.65;;;;;;;5.62;78.60;100457.78;5053415;28;20033;-44
2022/04/09 01:46:05;;;;;;;11.38;3.88;;;;;;;5.63;78.78;100465.66;5056312;28;20224;-43
2022/04/09 01:48:34;;;;;;;11.75;3.50;;;;;;;5.61;78.54;100473.19;5022037;28;20046;-45
2022/04/09 01:51:04;;;;;;;13.00;3.50;;;;;;;5.61;78.91;100475.06;5035008;28;20065;-50
2022/04/09 01:53:33;;;;;;;14.35;3.70;;;;;;;5.60;79.03;100478.81;5035676;28;20038;-47
2022/04/09 01:56:01;;;;;;;14.98;3.70;;;;;;;5.59;79.25;100477.19;5054580;28;20056;-48
2022/04/09 01:58:34;;;;;;;12.55;3.28;;;;;;;5.60;79.39;100495.03;5055213;28;20033;-49
2022/04/09 02:01:03;;;;;;;15.13;4.70;;;;;;;5.59;79.31;100494.22;5054504;28;20087;-50
2022/04/09 02:03:31;;;;;;;16.75;3.97;;;;;;;5.58;79.54;100489.03;5042363;28;20428;-52
2022/04/09 02:05:59;;;;;;;16.50;4.18;;;;;;;5.55;79.42;100495.75;5034546;28;20438;-49
2022/04/09 02:08:26;;;;;;;14.93;3.70;;;;;;;5.52;79.64;100499.75;5034564;28;20055;-47
2022/04/09 02:10:54;;;;;;;15.23;4.03;;;;;;;5.51;79.56;100508.94;5034479;28;20060;-50
2022/04/09 02:13:22;;;;;;;14.20;3.83;;;;;;;5.51;79.84;100508.13;5035597;28;20077;-44
2022/04/09 02:15:51;;;;;;;14.43;3.97;;;;;;;5.52;79.44;100513.28;5053884;28;20067;-49
2022/04/09 02:18:27;;;;;;;14.67;4.20;;;;;;;5.51;79.54;100511.66;5054888;28;20407;-46
2022/04/09 02:20:56;;;;;;;16.60;4.43;;;;;;;5.49;79.42;100518.34;5054657;28;20482;-49
2022/04/09 02:23:23;;;;;;;11.63;3.90;;;;;;;5.49;79.61;100521.88;5054027;28;20084;-52
2022/04/09 02:25:51;;;;;;;12.35;3.70;;;;;;;5.52;79.72;100521.38;5050786;28;20044;-52
2022/04/09 02:28:18;;;;;;;14.30;4.20;;;;;;;5.53;79.52;100533.00;5053805;28;20131;-45
2022/04/09 02:30:48;;;;;;;14.90;3.70;;;;;;;5.51;79.40;100535.97;5053585;28;20487;-49
2022/04/09 02:33:25;;;;;;;14.55;3.83;;;;;;;5.49;79.49;100532.69;5054019;28;20041;-50
2022/04/09 02:35:55;;;;;;;17.27;3.97;;;;;;;5.46;79.74;100543.13;5037575;28;20053;-49
2022/04/09 02:38:24;;;;;;;14.15;4.15;;;;;;;5.44;79.95;100546.09;5044917;28;20442;-49
2022/04/09 02:40:52;;;;;;;15.90;4.55;;;;;;;5.43;79.97;100555.25;5054118;28;20049;-53
2022/04/09 02:43:21;;;;;;;14.95;4.78;;;;;;;5.43;80.08;100552.53;5035607;28;20033;-46
2022/04/09 02:45:49;;;;;;;14.93;4.55;;;;;;;5.42;80.29;100563.63;5046868;28;20053;-52
2022/04/09 02:48:19;;;;;;;16.73;4.40;;;;;;;5.38;80.23;100578.66;5036228;28;20538;-44
2022/04/09 02:50:48;;;;;;;15.27;4.38;;;;;;;5.36;80.42;100568.06;5052188;28;20528;-51
2022/04/09 02:53:18;;;;;;;12.70;3.67;;;;;;;5.38;80.12;100582.16;5053661;28;20045;-44
2022/04/09 02:55:47;;;;;;;14.73;4.10;;;;;;;5.39;80.30;100581.13;5043259;28;20065;-49
2022/04/09 02:58:15;;;;;;;13.50;4.07;;;;;;;5.40;80.18;100577.34;5051077;28;20466;-48
2022/04/09 03:00:45;;;;;;;12.95;3.78;;;;;;;5.42;80.17;100580.63;5037372;28;20037;-48
2022/04/09 03:03:15;;;;;;;15.35;4.07;;;;;;;5.43;79.56;100584.16;5045766;28;20057;-49
2022/04/09 03:05:46;;;;;;;14.40;4.00;;;;;;;5.42;79.46;100596.84;5033537;28;20488;-50
2022/04/09 03:08:14;;;;;;;12.98;3.67;;;;;;;5.39;79.33;100602.75;5047674;28;20075;-48
2022/04/09 03:10:41;;;;;;;11.40;3.42;;;;;;;5.40;79.12;100607.06;5054234;28;20037;-49
2022/04/09 03:13:09;;;;;;;12.38;3.55;;;;;;;5.41;78.92;100614.13;5049304;28;20056;-49
2022/04/09 03:15:37;;;;;;;14.82;3.83;;;;;;;5.39;78.19;100627.06;5035349;28;20041;-48
2022/04/09 03:18:09;;;;;;;13.00;4.10;;;;;;;5.38;78.41;100621.88;5041915;28;20048;-49
2022/04/09 03:20:37;;;;;;;14.57;4.22;;;;;;;5.37;78.38;100626.47;5054159;28;20554;-47
2022/04/09 03:23:06;;;;;;;12.88;3.65;;;;;;;5.37;78.32;100625.66;5036849;28;20132;-45
2022/04/09 03:25:45;;;;;;;11.75;3.90;;;;;;;5.37;78.20;100621.06;5052678;28;20534;-46
2022/04/09 03:28:14;;;;;;;12.27;3.28;;;;;;;5.38;78.27;100628.09;5047903;28;20071;-51
2022/04/09 03:30:46;;;;;;;10.55;3.58;;;;;;;5.39;78.27;100628.91;5032684;28;20053;-48
2022/04/09 03:33:17;;;;;;;8.02;3.00;;;;;;;5.38;78.34;100625.41;5033089;28;20123;-47
2022/04/09 03:35:47;;;;;;;9.20;2.88;;;;;;;5.41;77.99;100632.19;5017100;28;20041;-49
2022/04/09 03:38:17;;;;;;;17.67;4.10;;;;;;;5.37;78.10;100626.47;5018085;28;20128;-49
2022/04/09 03:40:55;;;;;;;9.25;3.20;;;;;;;5.38;78.45;100629.97;5035442;28;20052;-52
2022/04/09 03:43:32;;;;;;;13.20;3.30;;;;;;;5.38;78.05;100629.97;5049866;28;20064;-49
2022/04/09 03:45:59;;;;;;;14.02;3.63;;;;;;;5.36;77.97;100635.63;5053710;28;20081;-48
2022/04/09 03:48:27;;;;;;;14.50;3.90;;;;;;;5.35;78.17;100642.09;5050950;28;20442;-47
2022/04/09 03:50:57;;;;;;;12.05;3.78;;;;;;;5.33;78.08;100642.31;5052622;28;20230;-49
2022/04/09 03:53:24;;;;;;;10.55;3.40;;;;;;;5.34;78.49;100643.97;5049483;28;20060;-49
2022/04/09 03:55:58;;;;;;;10.27;2.97;;;;;;;5.36;78.18;100648.31;5015868;28;20094;-48
2022/04/09 03:58:26;;;;;;;12.88;3.40;;;;;;;5.38;78.21;100660.53;5039242;28;20047;-51
2022/04/09 04:00:56;;;;;;;12.32;3.70;;;;;;;5.38;77.88;100659.69;5051920;28;20102;-49
2022/04/09 04:03:27;;;;;;;12.32;3.75;;;;;;;5.40;77.98;100663.00;5051123;28;20071;-51
2022/04/09 04:05:57;;;;;;;13.07;3.80;;;;;;;5.38;77.75;100668.63;5049033;28;20037;-47
2022/04/09 04:08:25;;;;;;;10.18;3.22;;;;;;;5.37;77.92;100672.41;5050018;28;20045;-47
2022/04/09 04:10:52;;;;;;;10.20;3.38;;;;;;;5.37;77.65;100675.09;5031291;28;20507;-53
2022/04/09 04:13:26;;;;;;;8.07;2.92;;;;;;;5.37;77.67;100669.69;5032448;28;20056;-50
2022/04/09 04:15:56;;;;;;;12.20;3.65;;;;;;;5.40;77.54;100680.03;5032465;28;20552;-48
2022/04/09 04:18:24;;;;;;;10.98;3.55;;;;;;;5.39;77.46;100678.38;5034925;28;20044;-47
2022/04/09 04:20:56;;;;;;;9.32;2.95;;;;;;;5.37;77.49;100680.50;5050047;28;20037;-50
2022/04/09 04:23:24;;;;;;;10.55;3.60;;;;;;;5.38;77.75;100687.53;5051848;28;20076;-49
2022/04/09 04:25:55;;;;;;;11.95;3.72;;;;;;;5.38;77.72;100690.25;5046615;28;20128;-50
2022/04/09 04:28:24;;;;;;;13.30;3.13;;;;;;;5.37;77.61;100699.41;5032473;28;20039;-50
2022/04/09 04:30:51;;;;;;;9.70;3.20;;;;;;;5.36;77.68;100702.34;5033001;28;20041;-53
2022/04/09 04:33:21;;;;;;;11.25;3.28;;;;;;;5.33;77.91;100700.94;5015929;28;20041;-48
2022/04/09 04:35:54;;;;;;;11.88;3.42;;;;;;;5.32;78.12;100707.41;5016487;28;20041;-51
2022/04/09 04:38:27;;;;;;;12.75;3.67;;;;;;;5.31;78.24;100708.44;5032288;28;20093;-48
2022/04/09 04:40:57;;;;;;;10.32;3.28;;;;;;;5.31;78.05;100711.16;5031864;28;20111;-47
2022/04/09 04:43:26;;;;;;;10.52;3.47;;;;;;;5.31;78.34;100713.84;5029483;28;20048;-47
2022/04/09 04:45:55;;;;;;;11.90;3.00;;;;;;;5.29;78.36;100724.91;5051703;28;20072;-48
2022/04/09 04:48:23;;;;;;;10.93;3.40;;;;;;;5.23;78.49;100722.31;5018228;28;20041;-47
2022/04/09 04:50:52;;;;;;;15.20;3.85;;;;;;;5.14;79.28;100724.53;5051449;28;20033;-49
2022/04/09 04:53:20;;;;;;;11.05;3.42;;;;;;;5.09;79.36;100727.94;5046109;28;20069;-46
2022/04/09 04:55:55;;;;;;;13.95;3.60;;;;;;;5.08;79.70;100726.31;5032905;28;20048;-49
2022/04/09 04:58:27;;;;;;;13.35;3.53;;;;;;;5.06;79.66;100730.31;5033979;28;20033;-49
2022/04/09 05:01:02;;;;;;;13.07;3.65;;;;;;;5.08;79.72;100731.72;5036477;28;20049;-49
2022/04/09 05:03:33;;;;;;;15.93;3.50;;;;;;;5.10;79.98;100732.31;5052164;28;20396;-53
2022/04/09 05:06:14;;;;;;;12.13;3.90;;;;;;;5.12;79.98;100737.44;5054191;28;20557;-50
2022/04/09 05:08:43;;;;;;;13.25;3.50;;;;;;;5.14;79.94;100746.16;5053376;28;20040;-47
2022/04/09 05:11:15;;;;;;;10.70;3.20;;;;;;;5.13;79.74;100752.63;5040281;28;20036;-51
2022/04/09 05:13:44;;;;;;;13.68;3.83;;;;;;;5.10;79.72;100761.19;5055134;28;20452;-52
2022/04/09 05:16:13;;;;;;;16.92;4.13;;;;;;;5.09;79.54;100763.06;5055555;28;20463;-52
2022/04/09 05:18:50;;;;;;;16.00;3.60;;;;;;;5.04;79.94;100771.03;5051077;28;20037;-51
2022/04/09 05:21:18;;;;;;;14.02;4.22;;;;;;;5.04;79.82;100768.31;5035358;28;20124;-49
2022/04/09 05:23:47;;;;;;;14.18;4.10;;;;;;;5.04;79.90;100775.63;5035410;28;20060;-52
2022/04/09 05:26:15;;;;;;;13.98;4.28;;;;;;;5.05;79.70;100777.25;5036114;28;20052;-49
2022/04/09 05:28:45;;;;;;;12.70;4.05;;;;;;;5.04;79.30;100789.94;5043687;28;20095;-54
2022/04/09 05:31:13;;;;;;;12.98;4.38;;;;;;;5.01;79.46;100790.41;5053362;28;20041;-52
2022/04/09 05:33:41;;;;;;;10.43;3.50;;;;;;;5.03;79.68;100792.88;5054885;28;20041;-53
2022/04/09 05:36:08;;;;;;;13.65;3.55;;;;;;;5.08;79.77;100799.22;5055876;28;20529;-53
2022/04/09 05:38:37;;;;;;;9.90;3.30;;;;;;;5.10;79.45;100807.91;5047104;28;20037;-45
2022/04/09 05:41:05;;;;;;;10.50;3.08;;;;;;;5.12;78.93;100803.13;5035314;28;20041;-50
2022/04/09 05:43:33;;;;;;;12.45;3.45;;;;;;;5.18;79.01;100812.16;5035009;28;20507;-50
2022/04/09 05:46:01;;;;;;;13.73;3.72;;;;;;;5.18;79.28;100816.75;5034818;28;20128;-51
2022/04/09 05:48:34;;;;;;;12.18;3.50;;;;;;;5.20;79.35;100814.63;5035741;28;20124;-50
2022/04/09 05:51:02;;;;;;;11.15;3.67;;;;;;;5.20;79.34;100822.75;5035510;28;20447;-50
2022/04/09 05:53:35;;;;;;;12.18;3.58;;;;;;;5.21;79.37;100818.97;5034779;28;20038;-48
2022/04/09 05:56:05;;;;;;;13.63;3.83;;;;;;;5.23;79.28;100830.38;5034427;28;20527;-49
2022/04/09 05:58:41;;;;;;;12.07;3.85;;;;;;;5.20;79.28;100831.66;5038366;28;20037;-48
2022/04/09 06:01:12;;;;;;;13.15;3.45;;;;;;;5.19;79.30;100845.38;5049018;28;20120;-52
2022/04/09 06:03:41;;;;;;;12.98;3.72;;;;;;;5.18;79.57;100843.75;5028663;28;20033;-47
2022/04/09 06:06:10;;;;;;;14.75;3.22;;;;;;;5.23;79.47;100846.56;5036205;28;20049;-48
2022/04/09 06:08:58;;;;;;;13.35;3.60;;;;;;;5.29;79.36;100851.88;5042802;28;20057;-44
2022/04/09 06:11:34;;;;;;;13.05;3.80;;;;;;;5.30;79.06;100858.09;5054189;28;20041;-47
2022/04/09 06:14:10;;;;;;;10.38;3.13;;;;;;;5.32;78.91;100853.28;5053057;28;20064;-44
2022/04/09 06:16:38;;;;;;;11.18;3.22;;;;;;;5.29;78.84;100859.97;5033173;28;20061;-45
2022/04/09 06:19:08;;;;;;;18.45;4.32;;;;;;;5.28;79.17;100860.19;5046977;28;20053;-48
2022/04/09 06:21:37;;;;;;;11.45;3.53;;;;;;;5.29;78.87;100875.34;5054167;28;20091;-51
2022/04/09 06:24:06;;;;;;;13.73;4.10;;;;;;;5.29;78.90;100889.69;5054353;28;20044;-51
2022/04/09 06:26:35;;;;;;;12.90;3.80;;;;;;;5.30;79.03;100899.44;5052636;28;20092;-48
2022/04/09 06:29:04;;;;;;;17.08;3.92;;;;;;;5.34;79.36;100903.34;5042758;28;20447;-50
2022/04/09 06:31:32;;;;;;;10.73;3.70;;;;;;;5.38;79.47;100911.78;5053702;28;20140;-48
2022/04/09 06:34:00;;;;;;;14.80;3.83;;;;;;;5.39;79.36;100893.69;5051850;28;20483;-49
2022/04/09 06:36:28;;;;;;;16.63;4.40;;;;;;;5.38;79.50;100894.75;5033801;28;20507;-48
2022/04/09 06:38:56;;;;;;;13.20;3.85;;;;;;;5.38;80.28;100909.09;5035975;28;20056;-47
2022/04/09 06:41:29;;;;;;;17.20;4.05;;;;;;;5.38;80.01;100917.19;5019083;28;20041;-48
2022/04/09 06:43:58;;;;;;;11.27;3.47;;;;;;;5.35;80.13;100928.47;5053756;28;20047;-47
2022/04/09 06:46:50;;;;;;;13.95;3.72;;;;;;;5.32;81.53;100945.16;5051785;28;20060;-43
2022/04/09 06:49:37;;;;;;;13.43;3.78;;;;;;;5.22;82.26;100958.34;5053785;28;20133;-44
2022/04/09 06:52:11;;;;;;;11.98;4.03;;;;;;;5.09;83.38;100962.88;5037779;28;20037;-45
2022/04/09 06:55:01;;;;;;;13.02;3.63;;;;;;;5.12;84.33;100959.75;5052545;28;20049;-47
2022/04/09 06:57:32;;;;;;;9.95;3.30;;;;;;;5.05;84.33;100958.19;5054693;28;20127;-43
2022/04/09 07:00:02;;;;;;;10.40;2.95;;;;;;;5.04;84.37;100973.56;5053480;28;20052;-44
2022/04/09 07:02:34;;;;;;;10.88;2.90;;;;;;;5.00;83.82;100966.97;5052916;28;20048;-43
2022/04/09 07:05:02;;;;;;;9.25;3.03;;;;;;;4.96;83.81;100956.88;5052831;28;20480;-43
2022/04/09 07:07:30;;;;;;;9.43;2.67;;;;;;;4.94;82.50;100940.88;5054371;28;20564;-43
2022/04/09 07:10:09;;;;;;;8.65;2.50;;;;;;;4.96;82.50;100949.59;5048194;28;20038;-46
2022/04/09 07:12:38;;;;;;;7.03;2.42;;;;;;;5.02;82.58;100945.13;5033111;28;20474;-44
2022/04/09 07:15:06;;;;;;;10.35;2.67;;;;;;;5.07;82.28;100967.69;5034448;28;20072;-49
2022/04/09 07:17:34;;;;;;;6.32;2.38;;;;;;;5.12;81.55;100962.47;5035054;28;20053;-49
2022/04/09 07:20:07;;;;;;;6.20;2.55;;;;;;;5.16;81.22;100975.50;5034186;28;20079;-48
2022/04/09 07:22:36;;;;;;;6.00;2.20;;;;;;;5.12;81.90;100975.97;5034100;28;20045;-52
2022/04/09 07:25:05;;;;;;;7.18;2.35;;;;;;;5.12;82.84;100986.75;5034387;28;20408;-47
2022/04/09 07:27:41;;;;;;;8.77;2.85;;;;;;;5.05;83.08;100987.88;5033508;28;20038;-47
2022/04/09 07:30:13;;;;;;;9.38;2.78;;;;;;;5.04;82.90;100988.94;5033992;28;20053;-45
2022/04/09 07:32:42;;;;;;;8.05;2.40;;;;;;;5.04;82.22;100995.16;5035760;28;20098;-49
2022/04/09 07:35:14;;;;;;;6.97;2.50;;;;;;;5.11;82.17;100990.50;5038630;28;20416;-44
2022/04/09 07:37:54;;;;;;;5.18;2.20;;;;;;;5.15;82.46;100995.44;5034112;28;20455;-43
2022/04/09 07:40:29;;;;;;;6.50;2.40;;;;;;;5.13;81.80;101004.59;5018164;28;20033;-46
2022/04/09 07:42:58;;;;;;;7.53;2.55;;;;;;;5.11;81.82;101012.09;5033954;28;20556;-47
2022/04/09 07:45:26;;;;;;;7.15;2.20;;;;;;;5.11;82.91;101017.50;5033793;28;20044;-47
2022/04/09 07:47:57;;;;;;;6.78;2.45;;;;;;;5.12;83.12;101019.19;5034588;28;20091;-47
2022/04/09 07:50:25;;;;;;;6.82;2.45;;;;;;;5.12;82.62;101024.56;5043274;28;20038;-47
2022/04/09 07:52:53;;;;;;;7.05;2.25;;;;;;;5.13;83.51;101030.81;5051285;28;20422;-49
2022/04/09 07:55:21;;;;;;;7.22;2.35;;;;;;;5.15;83.86;101044.06;5052266;28;20045;-47
2022/04/09 07:57:54;;;;;;;6.65;2.30;;;;;;;5.16;83.38;101045.72;5052497;28;20047;-43
2022/04/09 08:00:23;;;;;;;10.23;2.55;;;;;;;5.17;83.31;101041.97;5032481;28;20053;-49
2022/04/09 08:02:51;;;;;;;7.03;2.45;;;;;;;5.18;84.03;101043.63;5041821;28;20041;-48
2022/04/09 08:05:19;;;;;;;8.68;2.70;;;;;;;5.13;84.72;101049.72;5053535;28;20052;-47
2022/04/09 08:07:47;;;;;;;10.70;2.90;;;;;;;5.04;85.27;101046.47;5049150;28;20079;-46
2022/04/09 08:10:15;;;;;;;5.88;2.85;;;;;;;5.06;85.39;101038.16;5031881;28;20429;-45
2022/04/09 08:12:46;;;;;;;7.85;2.50;;;;;;;5.10;84.42;101042.88;5042684;28;20071;-45
2022/04/09 08:15:14;;;;;;;7.60;2.65;;;;;;;5.17;84.50;101036.56;5052456;28;20071;-43
2022/04/09 08:17:47;;;;;;;7.57;2.60;;;;;;;5.25;85.12;101038.97;5052458;28;20057;-50
2022/04/09 08:20:17;;;;;;;9.45;2.90;;;;;;;5.33;85.09;101038.63;5046391;28;20132;-50
2022/04/09 08:22:45;;;;;;;8.77;2.92;;;;;;;5.43;84.93;101038.91;5044881;28;20059;-44
2022/04/09 08:25:12;;;;;;;7.28;2.45;;;;;;;5.50;84.92;101034.25;5051903;28;20063;-44
2022/04/09 08:27:42;;;;;;;7.78;2.70;;;;;;;5.60;85.33;101030.16;5048120;28;20044;-45
2022/04/09 08:30:10;;;;;;;10.13;3.53;;;;;;;5.69;85.37;101045.84;5033770;28;20075;-44
2022/04/09 08:32:38;;;;;;;12.98;5.43;;;;;;;5.77;84.97;101047.38;5033302;28;20488;-44
2022/04/09 08:35:06;;;;;;;10.68;3.20;;;;;;;5.78;86.51;101067.16;5034073;28;20041;-44
2022/04/09 08:37:35;;;;;;;8.95;3.00;;;;;;;5.73;87.35;101103.81;5037662;28;20091;-43
2022/04/09 08:40:04;;;;;;;11.55;4.13;;;;;;;5.55;89.30;101115.47;5053511;28;20045;-47
2022/04/09 08:42:31;;;;;;;10.88;3.00;;;;;;;5.33;87.74;101109.72;5055302;28;20048;-43
2022/04/09 08:45:02;;;;;;;6.32;2.58;;;;;;;5.25;87.65;101087.59;5040266;28;20060;-44
2022/04/09 08:47:30;;;;;;;9.65;3.10;;;;;;;5.32;88.35;101078.34;5037213;28;20046;-43
2022/04/09 08:49:58;;;;;;;7.82;2.30;;;;;;;5.34;85.52;101087.06;5035996;28;20060;-43
2022/04/09 08:52:27;;;;;;;7.35;2.50;;;;;;;5.36;86.14;101086.81;5043032;28;20052;-45
2022/04/09 08:54:55;;;;;;;7.75;2.47;;;;;;;5.39;85.92;101075.56;5044752;28;20037;-45
2022/04/09 08:57:22;;;;;;;6.05;2.33;;;;;;;5.45;86.07;101077.34;5035299;28;20058;-43
2022/04/09 08:59:52;;;;;;;9.25;2.75;;;;;;;5.49;85.75;101081.25;5036611;28;20045;-44
2022/04/09 09:02:20;;;;;;;7.22;2.53;;;;;;;5.54;85.08;101075.16;5036418;28;20424;-44
2022/04/09 09:04:48;;;;;;;6.95;2.47;;;;;;;5.58;84.99;101084.47;5037818;28;20038;-43
2022/04/09 09:07:20;;;;;;;6.40;2.30;;;;;;;5.65;84.71;101081.66;5041323;28;20040;-44
2022/04/09 09:09:51;;;;;;;6.15;2.00;;;;;;;5.71;84.43;101086.16;5038902;28;20124;-46
2022/04/09 09:12:35;;;;;;;7.43;2.50;;;;;;;5.79;84.49;101096.66;5036484;28;20049;-49
2022/04/09 09:15:06;;;;;;;7.90;2.67;;;;;;;5.88;85.02;101089.88;5036565;28;20125;-46
2022/04/09 09:17:34;;;;;;;7.85;2.63;;;;;;;5.95;84.98;101087.91;5037438;28;20133;-42
2022/04/09 09:20:02;;;;;;;8.00;2.75;;;;;;;6.04;84.11;101095.69;5039225;28;20045;-42
2022/04/09 09:22:40;;;;;;;6.88;2.30;;;;;;;6.14;84.50;101088.69;5036135;28;20048;-44
2022/04/09 09:25:10;;;;;;;8.13;2.63;;;;;;;6.26;84.44;101094.13;5037481;28;20121;-45
2022/04/09 09:27:40;;;;;;;7.75;3.20;;;;;;;6.33;83.95;101097.53;5035340;28;20033;-46
2022/04/09 09:30:10;;;;;;;10.38;3.10;;;;;;;6.43;84.41;101098.84;5047298;28;20037;-46
2022/04/09 09:32:46;;;;;;;9.98;3.00;;;;;;;6.49;84.34;101097.91;5054615;28;20041;-47
2022/04/09 09:35:14;;;;;;;10.02;3.15;;;;;;;6.54;80.91;101096.16;5054378;28;20044;-43
2022/04/09 09:37:42;;;;;;;7.53;2.83;;;;;;;6.60;81.52;101105.22;5052952;28;20095;-47
2022/04/09 09:40:10;;;;;;;7.82;2.50;;;;;;;6.67;80.70;101089.69;5051805;28;20037;-47
2022/04/09 09:42:39;;;;;;;5.38;2.08;;;;;;;6.71;75.71;101095.44;5054482;28;20052;-47
2022/04/09 09:45:07;;;;;;;8.50;2.72;;;;;;;6.76;76.38;101099.09;5054039;28;20068;-45
2022/04/09 09:47:35;;;;;;;5.18;1.95;;;;;;;6.77;76.18;101105.34;5044155;28;20064;-43
2022/04/09 09:50:03;;;;;;;5.80;2.20;;;;;;;6.83;77.04;101115.22;5034834;28;20037;-45
2022/04/09 09:52:34;;;;;;;7.60;2.78;;;;;;;6.92;77.24;101110.28;5017893;28;20052;-44
2022/04/09 09:55:10;;;;;;;7.15;2.33;;;;;;;6.88;75.18;101100.97;5036955;28;20046;-44
2022/04/09 09:57:38;;;;;;;6.82;2.80;;;;;;;6.81;75.61;101118.19;5036688;28;20057;-46
2022/04/09 10:00:10;;;;;;;9.00;2.70;;;;;;;6.70;76.67;101121.69;5050574;28;20065;-45
2022/04/09 10:02:39;;;;;;;7.65;2.50;;;;;;;6.66;78.66;101134.03;5035116;28;20073;-45
2022/04/09 10:05:08;;;;;;;8.82;2.50;;;;;;;6.60;78.21;101129.59;5035610;28;20057;-45
2022/04/09 10:07:36;;;;;;;6.95;2.15;;;;;;;6.57;78.49;101135.47;5047873;28;20037;-47
2022/04/09 10:10:05;;;;;;;5.68;1.95;;;;;;;6.63;78.66;101131.81;5022646;28;20060;-46
2022/04/09 10:12:40;;;;;;;8.60;2.53;;;;;;;6.65;78.11;101135.13;5034491;28;20045;-46
2022/04/09 10:15:09;;;;;;;7.45;2.60;;;;;;;6.71;77.15;101127.94;5046966;28;20136;-45
2022/04/09 10:17:39;;;;;;;6.07;2.22;;;;;;;6.77;77.58;101119.69;5052837;28;20076;-46
2022/04/09 10:20:08;;;;;;;10.07;2.95;;;;;;;6.85;77.82;101131.25;5053959;28;20041;-45
2022/04/09 10:22:39;;;;;;;10.02;3.15;;;;;;;6.97;75.78;101119.34;5055057;28;20048;-43
2022/04/09 10:25:08;;;;;;;8.20;2.97;;;;;;;7.02;74.66;101124.03;5051882;28;20045;-42
2022/04/09 10:27:38;;;;;;;6.90;2.58;;;;;;;7.11;75.56;101119.91;5053280;28;20059;-45
2022/04/09 10:30:16;;;;;;;9.43;2.90;;;;;;;7.16;73.63;101125.44;5055255;28;20488;-44
2022/04/09 10:32:50;;;;;;;14.30;3.25;;;;;;;7.24;74.62;101133.22;5053732;28;20044;-47
2022/04/09 10:35:27;;;;;;;9.35;3.17;;;;;;;7.32;74.37;101128.50;5052851;28;20107;-46
2022/04/09 10:38:07;;;;;;;9.07;2.97;;;;;;;7.42;69.66;101134.94;5048015;28;20488;-46
2022/04/09 10:40:36;;;;;;;6.63;2.95;;;;;;;7.53;70.91;101135.16;5034905;28;20079;-45
2022/04/09 10:43:05;;;;;;;9.38;3.00;;;;;;;7.60;68.47;101125.84;5033693;28;20046;-45
2022/04/09 10:45:32;;;;;;;10.13;3.08;;;;;;;7.65;68.25;101134.06;5036256;28;20070;-48
2022/04/09 10:48:11;;;;;;;10.90;3.70;;;;;;;7.57;62.82;101120.06;5034100;28;20083;-46
2022/04/09 10:50:59;;;;;;;10.75;3.45;;;;;;;7.48;62.79;101138.59;5053542;28;20411;-46
2022/04/09 10:53:28;;;;;;;11.13;3.22;;;;;;;7.41;63.42;101133.31;5054350;28;20037;-45
2022/04/09 10:56:21;;;;;;;9.48;3.28;;;;;;;7.48;62.72;101138.59;5041900;28;20099;-46
2022/04/09 10:59:08;;;;;;;10.48;3.00;;;;;;;7.62;60.97;101148.09;5053363;28;20573;-44
2022/04/09 11:01:46;;;;;;;8.60;3.03;;;;;;;7.80;69.44;101140.84;5053626;28;20049;-48
2022/04/09 11:04:34;;;;;;;9.13;3.00;;;;;;;7.78;70.51;101142.97;5054109;28;20045;-46
2022/04/09 11:07:06;;;;;;;8.30;2.65;;;;;;;7.71;71.55;101148.53;5052123;28;20491;-43
2022/04/09 11:09:58;;;;;;;8.35;2.95;;;;;;;7.66;70.87;101154.69;5036132;28;20049;-48
2022/04/09 11:12:29;;;;;;;8.43;3.10;;;;;;;7.64;71.27;101154.09;5034089;28;20045;-45
2022/04/09 11:15:07;;;;;;;8.98;2.80;;;;;;;7.61;71.35;101151.88;5039340;28;20398;-46
2022/04/09 11:17:38;;;;;;;10.52;3.65;;;;;;;7.52;69.91;101149.78;5050269;28;20091;-46
2022/04/09 11:20:07;;;;;;;11.18;2.70;;;;;;;7.46;70.58;101146.16;5053057;28;20088;-45
2022/04/09 11:22:39;;;;;;;9.13;2.78;;;;;;;7.42;69.20;101150.38;5052595;28;20552;-46
2022/04/09 11:25:08;;;;;;;10.00;2.78;;;;;;;7.36;69.79;101145.91;5050395;28;20064;-44
2022/04/09 11:27:36;;;;;;;9.82;2.70;;;;;;;7.37;70.30;101136.72;5034239;28;20128;-45
2022/04/09 11:30:04;;;;;;;12.18;3.00;;;;;;;7.45;68.40;101149.91;5047977;28;20041;-48
2022/04/09 11:32:35;;;;;;;7.93;2.88;;;;;;;7.56;66.51;101148.25;5052658;28;20051;-42
2022/04/09 11:35:11;;;;;;;11.35;2.90;;;;;;;7.63;64.58;101138.91;5053517;28;20094;-44
2022/04/09 11:37:50;;;;;;;9.50;3.03;;;;;;;7.65;61.94;101144.91;5032583;28;20569;-46
2022/04/09 11:40:20;;;;;;;9.27;2.85;;;;;;;7.72;57.13;101143.94;5032348;28;20526;-46
2022/04/09 11:42:49;;;;;;;8.23;2.88;;;;;;;7.78;55.90;101148.41;5034240;28;20477;-46
2022/04/09 11:45:20;;;;;;;7.82;3.20;;;;;;;7.82;55.19;101158.53;5033070;28;20037;-46